UTTTUWSS

Guest
Details From UTTT - Yuzhny
To UWSS - Tsentralny
Flight Number -
Tags Generated
Created
Modified
Stats Distance 1,137 nm / 2,105 km
Max Altitude 0 ft / 0 m
Waypoints 3
Social Downloads 0
Likes 0
Share VATSIM

Download

Looking for another format? Having issues loading an existing format? Contact us
Advertisement - Login to hide

Notes

Generated

Route

UTTT LURAT UWSS

ID Type Via Altitude Latitude Longitude Leg Dist Tot Dist Heading (true) Name
O UTTT APT - 0 ft / 0 m 41.25059˚ 69.25911˚ - 0 nm - -
LURAT FIX - 0 ft / 0 m 51.56667˚ 46.05000˚ 1135 nm 1135 nm 311° / 294° -
O UWSS APT - 0 ft / 0 m 51.57167˚ 46.03333˚ 0 nm 1136 nm 296° / 296° -

Altitude Profile

Advertisement - Login to hide

Weather


0- 5 10 15 20 25 30 35+ Temperature / ° C

Clouds and Precipitation
Forecast for 2017-12-15 12:00 UTC. Updated an hour ago

Ground ~20,000 ft ~40,000 ft Winds

UTTT

Details ICAO UTTT (TAS)
Name Yuzhny
Region Tajikistan, Turkmenistan and Uzbekistan
Timezone Asia/Tashkent (UTC+5.0)
Stats Elevation 1,417 ft / 432 m (AMSL)
Location 41.255517° 69.281646°
Runways 2
Magnetic Variation 5.402° E

METAR

UTTT 151030Z 32006KT 3000 BR FU NSC 01/M04 Q1028 R08L/CLRD70 NOSIG

Decode

TAF

TAF UTTT 150500Z 1506/1606 VRB02KT 3000 BR SCT004 BKN100 TEMPO 1514/1524 0800 FZFG OVC002

Decode

Departure Runways

ID Width Length Bearing (true) Bearing (mag) Surface Threshold Offset Overrun Length
08L 197 ft / 60 m 13,135 ft / 4,004 m 76.98° 71.58° Concrete 820 ft / 250 m 0 ft / 0 m
08R 148 ft / 45 m 12,824 ft / 3,909 m 76.99° 71.59° Asphalt 650 ft / 198 m 0 ft / 0 m
26L 148 ft / 45 m 12,824 ft / 3,909 m 257.02° 251.62° Asphalt 680 ft / 207 m 0 ft / 0 m
26R 197 ft / 60 m 13,135 ft / 4,004 m 257.02° 251.62° Concrete 820 ft / 250 m 0 ft / 0 m

UWSS

Details ICAO UWSS (RTW)
Name TSENTRALNY
Region Russia
Timezone Europe/Volgograd (UTC+3.0)
Stats Elevation 499 ft / 152 m (AMSL)
Location 51.565833° 46.046667°
Runways 1
Magnetic Variation 10.633° E

METAR

UWSS 151030Z 15008MPS 4000 -SN BR OVC007 M04/M05 Q1024 R12/420350 NOSIG RMK QFE756

Decode

TAF

Not found

Destination Runways

ID Width Length Bearing (true) Bearing (mag) Surface Threshold Offset Overrun Length
12 138 ft / 42 m 7,397 ft / 2,255 m 125.13° 114.50° Asphalt 0 ft / 0 m 95 ft / 29 m
30 138 ft / 42 m 7,397 ft / 2,255 m 305.15° 294.52° Asphalt 0 ft / 0 m 95 ft / 29 m

Approach Navaids

Runway Type Ident Frequency Range Bearing (true) Bearing (mag) Slope Elevation
12 Localiser IOH 110.50 MHz 18 nm / 33 km 127.14° 116.51° - 499 ft / 152 m (AMSL)
12 Glidescope IOH 110.50 MHz 10 nm / 19 km 125.14° 114.51° 3.00° 499 ft / 152 m (AMSL)
30 Localiser IDK 109.10 MHz 18 nm / 33 km 305.55° 294.92° - 499 ft / 152 m (AMSL)
30 Glidescope IDK 109.10 MHz 10 nm / 19 km 305.14° 294.51° 2.80° 499 ft / 152 m (AMSL)